Terminal Aerodrome Forecast
Issued by NWS Wichita, KS

Home | Current Version | Previous Version | Graphics & Text | Print | Product List | Glossary On
Versions: 1 2 3 4 5 6 7 8 9 10 11 12 13 14 15 16 17 18 19 20 21 22 23 24
000
FTUS43 KICT 142136 AAB
TAFICT
TAF AMD
KICT 142136Z 1422/1518 15016G24KT P6SM VCSH BKN012 OVC025
     FM150000 15015KT P6SM SCT020 BKN035
     FM150900 24014G21KT P6SM BKN020 OVC050
     FM151500 31021G31KT P6SM SCT009 BKN015=

USA.gov is the U.S. government's official web portal to all federal, state and local government web resources and services.